sensor_id;sensor_type;location;lat;lon;timestamp;pressure;altitude;pressure_sealevel;temperature;humidity
70072;BME280;57434;42.794;23.302;2023-05-10T00:00:51;95821.53;;;8.38;nan
70072;BME280;57434;42.794;23.302;2023-05-10T00:01:53;95944.00;;;9.14;nan
70072;BME280;57434;42.794;23.302;2023-05-10T00:02:55;95924.84;;;8.98;nan
70072;BME280;57434;42.794;23.302;2023-05-10T00:03:57;95857.50;;;8.54;nan
70072;BME280;57434;42.794;23.302;2023-05-10T00:04:59;95879.63;;;8.67;nan
70072;BME280;57434;42.794;23.302;2023-05-10T00:06:01;95942.66;;;9.10;nan
70072;BME280;57434;42.794;23.302;2023-05-10T00:07:02;95911.03;;;8.95;nan
70072;BME280;57434;42.794;23.302;2023-05-10T00:08:04;95954.34;;;9.08;nan
70072;BME280;57434;42.794;23.302;2023-05-10T00:09:06;95852.00;;;8.60;nan
70072;BME280;57434;42.794;23.302;2023-05-10T00:10:08;95952.63;;;9.11;nan
70072;BME280;57434;42.794;23.302;2023-05-10T00:11:10;95821.28;;;8.27;nan
70072;BME280;57434;42.794;23.302;2023-05-10T00:12:12;95815.03;;;8.32;nan
70072;BME280;57434;42.794;23.302;2023-05-10T00:13:14;95935.72;;;8.96;nan
70072;BME280;57434;42.794;23.302;2023-05-10T00:14:17;95943.19;;;8.99;nan
70072;BME280;57434;42.794;23.302;2023-05-10T00:15:19;95926.88;;;8.98;nan
70072;BME280;57434;42.794;23.302;2023-05-10T00:16:20;95792.47;;;8.11;nan
70072;BME280;57434;42.794;23.302;2023-05-10T00:17:22;95935.38;;;9.03;nan
70072;BME280;57434;42.794;23.302;2023-05-10T00:18:24;95804.72;;;8.14;nan
70072;BME280;57434;42.794;23.302;2023-05-10T00:19:26;95792.53;;;8.02;nan
70072;BME280;57434;42.794;23.302;2023-05-10T00:20:28;95934.72;;;8.84;nan
70072;BME280;57434;42.794;23.302;2023-05-10T00:21:30;95924.09;;;8.89;nan
70072;BME280;57434;42.794;23.302;2023-05-10T00:22:32;95918.03;;;8.90;nan
70072;BME280;57434;42.794;23.302;2023-05-10T00:23:34;95866.34;;;8.53;nan
70072;BME280;57434;42.794;23.302;2023-05-10T00:24:36;95873.44;;;8.63;nan
70072;BME280;57434;42.794;23.302;2023-05-10T00:25:37;95915.47;;;8.77;nan
70072;BME280;57434;42.794;23.302;2023-05-10T00:26:39;95923.53;;;8.84;nan
70072;BME280;57434;42.794;23.302;2023-05-10T00:27:41;95787.88;;;7.99;nan
70072;BME280;57434;42.794;23.302;2023-05-10T00:28:43;95844.59;;;8.24;nan
70072;BME280;57434;42.794;23.302;2023-05-10T00:29:45;95938.78;;;8.83;nan
70072;BME280;57434;42.794;23.302;2023-05-10T00:30:47;95796.38;;;8.05;nan
70072;BME280;57434;42.794;23.302;2023-05-10T00:31:49;95912.38;;;8.75;nan
70072;BME280;57434;42.794;23.302;2023-05-10T00:32:51;95933.22;;;8.74;nan
70072;BME280;57434;42.794;23.302;2023-05-10T00:33:52;95918.44;;;8.74;nan
70072;BME280;57434;42.794;23.302;2023-05-10T00:34:54;95804.88;;;8.10;nan
70072;BME280;57434;42.794;23.302;2023-05-10T00:35:56;95910.50;;;8.81;nan
70072;BME280;57434;42.794;23.302;2023-05-10T00:36:58;95939.66;;;8.90;nan
70072;BME280;57434;42.794;23.302;2023-05-10T00:38:00;95834.91;;;8.34;nan
70072;BME280;57434;42.794;23.302;2023-05-10T00:39:02;95864.50;;;8.49;nan
70072;BME280;57434;42.794;23.302;2023-05-10T00:40:05;95935.22;;;8.74;nan
70072;BME280;57434;42.794;23.302;2023-05-10T00:41:07;95787.88;;;7.99;nan
70072;BME280;57434;42.794;23.302;2023-05-10T00:42:09;95805.72;;;8.02;nan
70072;BME280;57434;42.794;23.302;2023-05-10T00:43:11;95903.25;;;8.66;nan
70072;BME280;57434;42.794;23.302;2023-05-10T00:44:13;95836.22;;;8.24;nan
70072;BME280;57434;42.794;23.302;2023-05-10T00:45:15;95818.09;;;8.10;nan
70072;BME280;57434;42.794;23.302;2023-05-10T00:46:17;95921.47;;;8.85;nan
70072;BME280;57434;42.794;23.302;2023-05-10T00:47:19;95909.91;;;8.68;nan
70072;BME280;57434;42.794;23.302;2023-05-10T00:48:21;95787.41;;;8.01;nan
70072;BME280;57434;42.794;23.302;2023-05-10T00:49:23;95893.28;;;8.74;nan
70072;BME280;57434;42.794;23.302;2023-05-10T00:50:25;95797.44;;;8.07;nan
70072;BME280;57434;42.794;23.302;2023-05-10T00:51:27;95792.16;;;8.09;nan
70072;BME280;57434;42.794;23.302;2023-05-10T00:52:30;95894.53;;;8.73;nan
70072;BME280;57434;42.794;23.302;2023-05-10T00:53:32;95789.91;;;7.99;nan
70072;BME280;57434;42.794;23.302;2023-05-10T00:54:34;95775.97;;;7.90;nan
70072;BME280;57434;42.794;23.302;2023-05-10T00:55:36;95785.56;;;7.98;nan
70072;BME280;57434;42.794;23.302;2023-05-10T00:56:39;95803.81;;;8.08;nan
70072;BME280;57434;42.794;23.302;2023-05-10T00:57:41;95856.16;;;8.40;nan
70072;BME280;57434;42.794;23.302;2023-05-10T00:58:44;95866.22;;;8.47;nan
70072;BME280;57434;42.794;23.302;2023-05-10T00:59:46;95777.03;;;7.92;nan
70072;BME280;57434;42.794;23.302;2023-05-10T01:00:48;95771.00;;;7.85;nan
70072;BME280;57434;42.794;23.302;2023-05-10T01:01:51;95887.31;;;8.57;nan
70072;BME280;57434;42.794;23.302;2023-05-10T01:02:53;95909.91;;;8.68;nan
70072;BME280;57434;42.794;23.302;2023-05-10T01:03:55;95910.97;;;8.80;nan
70072;BME280;57434;42.794;23.302;2023-05-10T01:04:58;95906.31;;;8.77;nan
70072;BME280;57434;42.794;23.302;2023-05-10T01:06:00;95896.84;;;8.74;nan
70072;BME280;57434;42.794;23.302;2023-05-10T01:07:02;95782.63;;;7.92;nan
70072;BME280;57434;42.794;23.302;2023-05-10T01:08:04;95918.91;;;8.72;nan
70072;BME280;57434;42.794;23.302;2023-05-10T01:09:06;95902.91;;;8.73;nan
70072;BME280;57434;42.794;23.302;2023-05-10T01:10:08;95858.91;;;8.49;nan
70072;BME280;57434;42.794;23.302;2023-05-10T01:11:11;95924.66;;;8.78;nan
70072;BME280;57434;42.794;23.302;2023-05-10T01:12:13;95884.78;;;8.59;nan
70072;BME280;57434;42.794;23.302;2023-05-10T01:13:38;95792.94;;;8.10;nan
70072;BME280;57434;42.794;23.302;2023-05-10T01:14:42;95870.22;;;8.55;nan
70072;BME280;57434;42.794;23.302;2023-05-10T01:15:46;95906.16;;;8.80;nan
70072;BME280;57434;42.794;23.302;2023-05-10T01:16:49;95904.13;;;8.81;nan
70072;BME280;57434;42.794;23.302;2023-05-10T01:17:51;95899.78;;;8.80;nan
70072;BME280;57434;42.794;23.302;2023-05-10T01:18:53;95790.66;;;7.99;nan
70072;BME280;57434;42.794;23.302;2023-05-10T01:19:55;95811.22;;;8.20;nan
70072;BME280;57434;42.794;23.302;2023-05-10T01:21:23;95784.63;;;8.01;nan
70072;BME280;57434;42.794;23.302;2023-05-10T01:22:59;95904.00;;;8.75;nan
70072;BME280;57434;42.794;23.302;2023-05-10T01:27:07;95905.06;;;8.78;nan
70072;BME280;57434;42.794;23.302;2023-05-10T01:34:09;95774.97;;;8.02;nan
70072;BME280;57434;42.794;23.302;2023-05-10T01:35:47;95770.50;;;7.95;nan
70072;BME280;57434;42.794;23.302;2023-05-10T01:37:09;95902.44;;;8.74;nan
70072;BME280;57434;42.794;23.302;2023-05-10T01:38:50;95891.06;;;8.78;nan
70072;BME280;57434;42.794;23.302;2023-05-10T01:40:27;95901.66;;;8.74;nan
70072;BME280;57434;42.794;23.302;2023-05-10T01:41:40;95862.97;;;8.48;nan
70072;BME280;57434;42.794;23.302;2023-05-10T01:42:51;95769.00;;;7.85;nan
70072;BME280;57434;42.794;23.302;2023-05-10T01:45:11;95899.13;;;8.52;nan
70072;BME280;57434;42.794;23.302;2023-05-10T01:46:18;95889.81;;;8.55;nan
70072;BME280;57434;42.794;23.302;2023-05-10T01:47:33;95898.19;;;8.55;nan
70072;BME280;57434;42.794;23.302;2023-05-10T01:49:03;95890.34;;;8.68;nan
70072;BME280;57434;42.794;23.302;2023-05-10T01:50:15;95882.06;;;8.50;nan
70072;BME280;57434;42.794;23.302;2023-05-10T01:51:23;95792.09;;;7.95;nan
70072;BME280;57434;42.794;23.302;2023-05-10T01:52:47;95769.94;;;7.82;nan
70072;BME280;57434;42.794;23.302;2023-05-10T01:53:59;95881.59;;;8.52;nan
70072;BME280;57434;42.794;23.302;2023-05-10T01:55:05;95889.22;;;8.42;nan
70072;BME280;57434;42.794;23.302;2023-05-10T01:56:09;95880.22;;;8.38;nan
70072;BME280;57434;42.794;23.302;2023-05-10T01:59:12;95771.72;;;7.61;nan
70072;BME280;57434;42.794;23.302;2023-05-10T02:00:18;95888.63;;;8.38;nan
70072;BME280;57434;42.794;23.302;2023-05-10T02:01:21;95882.63;;;8.21;nan
70072;BME280;57434;42.794;23.302;2023-05-10T02:02:24;95883.19;;;8.34;nan
70072;BME280;57434;42.794;23.302;2023-05-10T02:03:28;95909.19;;;8.26;nan
70072;BME280;57434;42.794;23.302;2023-05-10T02:04:30;95903.13;;;8.27;nan
70072;BME280;57434;42.794;23.302;2023-05-10T02:05:33;95753.72;;;7.53;nan
70072;BME280;57434;42.794;23.302;2023-05-10T02:06:38;95816.31;;;7.89;nan
70072;BME280;57434;42.794;23.302;2023-05-10T02:07:40;95884.19;;;8.22;nan
70072;BME280;57434;42.794;23.302;2023-05-10T02:08:43;95792.66;;;7.66;nan
70072;BME280;57434;42.794;23.302;2023-05-10T02:09:47;95885.28;;;8.25;nan
70072;BME280;57434;42.794;23.302;2023-05-10T02:10:51;95834.59;;;7.99;nan
70072;BME280;57434;42.794;23.302;2023-05-10T02:11:54;95786.13;;;7.69;nan
70072;BME280;57434;42.794;23.302;2023-05-10T02:12:58;95852.25;;;8.05;nan
70072;BME280;57434;42.794;23.302;2023-05-10T02:14:01;95893.38;;;8.13;nan
70072;BME280;57434;42.794;23.302;2023-05-10T02:15:05;95896.47;;;8.15;nan
70072;BME280;57434;42.794;23.302;2023-05-10T02:16:08;95889.63;;;8.26;nan
70072;BME280;57434;42.794;23.302;2023-05-10T02:17:11;95776.88;;;7.44;nan
70072;BME280;57434;42.794;23.302;2023-05-10T02:18:14;95868.53;;;8.06;nan
70072;BME280;57434;42.794;23.302;2023-05-10T02:19:17;95874.97;;;7.98;nan
70072;BME280;57434;42.794;23.302;2023-05-10T02:20:22;95857.13;;;7.95;nan
70072;BME280;57434;42.794;23.302;2023-05-10T02:21:25;95873.56;;;8.02;nan
70072;BME280;57434;42.794;23.302;2023-05-10T02:22:29;95901.44;;;8.11;nan
70072;BME280;57434;42.794;23.302;2023-05-10T02:23:33;95883.19;;;8.01;nan
70072;BME280;57434;42.794;23.302;2023-05-10T02:24:36;95907.03;;;8.11;nan
70072;BME280;57434;42.794;23.302;2023-05-10T02:25:39;95875.06;;;8.03;nan
70072;BME280;57434;42.794;23.302;2023-05-10T02:26:41;95755.66;;;7.20;nan
70072;BME280;57434;42.794;23.302;2023-05-10T02:27:44;95896.22;;;7.95;nan
70072;BME280;57434;42.794;23.302;2023-05-10T02:28:47;95885.34;;;7.97;nan
70072;BME280;57434;42.794;23.302;2023-05-10T02:29:51;95779.50;;;7.30;nan
70072;BME280;57434;42.794;23.302;2023-05-10T02:30:54;95898.97;;;8.04;nan
70072;BME280;57434;42.794;23.302;2023-05-10T02:31:57;95882.44;;;7.82;nan
70072;BME280;57434;42.794;23.302;2023-05-10T02:33:00;95778.91;;;7.35;nan
70072;BME280;57434;42.794;23.302;2023-05-10T02:34:04;95765.31;;;6.91;nan
70072;BME280;57434;42.794;23.302;2023-05-10T02:35:08;95750.09;;;7.20;nan
70072;BME280;57434;42.794;23.302;2023-05-10T02:36:12;95877.75;;;7.89;nan
70072;BME280;57434;42.794;23.302;2023-05-10T02:37:15;95864.91;;;7.82;nan
70072;BME280;57434;42.794;23.302;2023-05-10T02:38:20;95882.16;;;7.71;nan
70072;BME280;57434;42.794;23.302;2023-05-10T02:39:24;95870.22;;;7.71;nan
70072;BME280;57434;42.794;23.302;2023-05-10T02:40:28;95741.59;;;6.87;nan
70072;BME280;57434;42.794;23.302;2023-05-10T02:41:32;95727.97;;;6.79;nan
70072;BME280;57434;42.794;23.302;2023-05-10T02:42:36;95873.63;;;7.57;nan
70072;BME280;57434;42.794;23.302;2023-05-10T02:43:39;95883.72;;;7.54;nan
70072;BME280;57434;42.794;23.302;2023-05-10T02:44:43;95860.91;;;7.56;nan
70072;BME280;57434;42.794;23.302;2023-05-10T02:45:47;95765.00;;;6.80;nan
70072;BME280;57434;42.794;23.302;2023-05-10T02:46:49;95842.63;;;7.36;nan
70072;BME280;57434;42.794;23.302;2023-05-10T02:47:52;95894.56;;;7.61;nan
70072;BME280;57434;42.794;23.302;2023-05-10T02:48:54;95865.28;;;7.47;nan
70072;BME280;57434;42.794;23.302;2023-05-10T02:49:56;95741.59;;;6.59;nan
70072;BME280;57434;42.794;23.302;2023-05-10T02:51:02;95820.31;;;6.91;nan
70072;BME280;57434;42.794;23.302;2023-05-10T02:52:06;95892.69;;;7.31;nan
70072;BME280;57434;42.794;23.302;2023-05-10T02:53:11;95854.09;;;7.20;nan
70072;BME280;57434;42.794;23.302;2023-05-10T02:54:20;95887.47;;;7.42;nan
70072;BME280;57434;42.794;23.302;2023-05-10T02:55:33;95761.25;;;6.46;nan
70072;BME280;57434;42.794;23.302;2023-05-10T02:56:42;95854.25;;;7.07;nan
70072;BME280;57434;42.794;23.302;2023-05-10T02:58:00;95906.97;;;7.14;nan
70072;BME280;57434;42.794;23.302;2023-05-10T02:59:02;95903.38;;;7.23;nan
70072;BME280;57434;42.794;23.302;2023-05-10T03:00:04;95844.78;;;6.87;nan
70072;BME280;57434;42.794;23.302;2023-05-10T03:01:07;95892.81;;;7.00;nan
70072;BME280;57434;42.794;23.302;2023-05-10T03:02:10;95917.19;;;7.08;nan
70072;BME280;57434;42.794;23.302;2023-05-10T03:03:12;95883.38;;;7.06;nan
70072;BME280;57434;42.794;23.302;2023-05-10T03:04:14;95764.47;;;6.27;nan
70072;BME280;57434;42.794;23.302;2023-05-10T03:05:16;95766.81;;;6.28;nan
70072;BME280;57434;42.794;23.302;2023-05-10T03:06:17;95753.78;;;6.25;nan
70072;BME280;57434;42.794;23.302;2023-05-10T03:07:19;95887.28;;;7.18;nan
70072;BME280;57434;42.794;23.302;2023-05-10T03:08:22;95888.84;;;7.19;nan
70072;BME280;57434;42.794;23.302;2023-05-10T03:09:24;95895.78;;;7.05;nan
70072;BME280;57434;42.794;23.302;2023-05-10T03:10:27;95898.41;;;7.27;nan
70072;BME280;57434;42.794;23.302;2023-05-10T03:13:18;95906.16;;;7.23;nan
70072;BME280;57434;42.794;23.302;2023-05-10T03:16:46;95887.38;;;6.96;nan
70072;BME280;57434;42.794;23.302;2023-05-10T03:18:01;95904.00;;;7.09;nan
70072;BME280;57434;42.794;23.302;2023-05-10T03:19:23;95894.72;;;7.12;nan
70072;BME280;57434;42.794;23.302;2023-05-10T03:20:29;95895.63;;;6.91;nan
70072;BME280;57434;42.794;23.302;2023-05-10T03:21:35;95889.25;;;6.90;nan
70072;BME280;57434;42.794;23.302;2023-05-10T03:22:50;95895.34;;;7.16;nan
70072;BME280;57434;42.794;23.302;2023-05-10T03:24:05;95786.47;;;6.34;nan
70072;BME280;57434;42.794;23.302;2023-05-10T03:25:10;95913.44;;;7.02;nan
70072;BME280;57434;42.794;23.302;2023-05-10T03:26:20;95904.16;;;7.14;nan
70072;BME280;57434;42.794;23.302;2023-05-10T03:27:26;95738.91;;;6.10;nan
70072;BME280;57434;42.794;23.302;2023-05-10T03:28:28;95883.50;;;6.94;nan
70072;BME280;57434;42.794;23.302;2023-05-10T03:29:31;95929.75;;;7.13;nan
70072;BME280;57434;42.794;23.302;2023-05-10T03:30:35;95867.53;;;6.76;nan
70072;BME280;57434;42.794;23.302;2023-05-10T03:31:38;95800.09;;;6.41;nan
70072;BME280;57434;42.794;23.302;2023-05-10T03:32:40;95921.53;;;7.09;nan
70072;BME280;57434;42.794;23.302;2023-05-10T03:33:49;95810.63;;;6.46;nan
70072;BME280;57434;42.794;23.302;2023-05-10T03:34:51;95894.38;;;7.01;nan
70072;BME280;57434;42.794;23.302;2023-05-10T03:35:53;95929.72;;;7.04;nan
70072;BME280;57434;42.794;23.302;2023-05-10T03:36:55;95812.81;;;6.51;nan
70072;BME280;57434;42.794;23.302;2023-05-10T03:37:57;95765.81;;;6.13;nan
70072;BME280;57434;42.794;23.302;2023-05-10T03:38:59;95935.00;;;7.11;nan
70072;BME280;57434;42.794;23.302;2023-05-10T03:40:01;95821.97;;;6.52;nan
70072;BME280;57434;42.794;23.302;2023-05-10T03:41:03;95777.63;;;6.26;nan
70072;BME280;57434;42.794;23.302;2023-05-10T03:42:05;95884.78;;;6.93;nan
70072;BME280;57434;42.794;23.302;2023-05-10T03:43:07;95890.81;;;7.09;nan
70072;BME280;57434;42.794;23.302;2023-05-10T03:44:09;95782.59;;;6.31;nan
70072;BME280;57434;42.794;23.302;2023-05-10T03:45:10;95791.28;;;6.42;nan
70072;BME280;57434;42.794;23.302;2023-05-10T03:46:12;95781.53;;;6.38;nan
70072;BME280;57434;42.794;23.302;2023-05-10T03:47:14;95886.31;;;7.03;nan
70072;BME280;57434;42.794;23.302;2023-05-10T03:48:16;95813.63;;;6.61;nan
70072;BME280;57434;42.794;23.302;2023-05-10T03:49:18;95929.44;;;7.20;nan
70072;BME280;57434;42.794;23.302;2023-05-10T03:50:20;95906.66;;;7.12;nan
70072;BME280;57434;42.794;23.302;2023-05-10T03:51:22;95895.31;;;7.07;nan
70072;BME280;57434;42.794;23.302;2023-05-10T03:52:24;95902.75;;;7.10;nan
70072;BME280;57434;42.794;23.302;2023-05-10T03:53:26;95811.72;;;6.48;nan
70072;BME280;57434;42.794;23.302;2023-05-10T03:54:28;95910.22;;;7.13;nan
70072;BME280;57434;42.794;23.302;2023-05-10T03:55:29;95930.19;;;7.21;nan
70072;BME280;57434;42.794;23.302;2023-05-10T03:56:31;95788.16;;;6.31;nan
70072;BME280;57434;42.794;23.302;2023-05-10T03:57:33;95923.22;;;7.25;nan
70072;BME280;57434;42.794;23.302;2023-05-10T03:58:35;95922.47;;;7.15;nan
70072;BME280;57434;42.794;23.302;2023-05-10T03:59:37;95803.50;;;6.36;nan
70072;BME280;57434;42.794;23.302;2023-05-10T04:00:39;95880.91;;;6.90;nan
70072;BME280;57434;42.794;23.302;2023-05-10T04:01:41;95790.94;;;6.22;nan
70072;BME280;57434;42.794;23.302;2023-05-10T04:02:43;95779.03;;;6.31;nan
70072;BME280;57434;42.794;23.302;2023-05-10T04:03:46;95944.16;;;7.21;nan
70072;BME280;57434;42.794;23.302;2023-05-10T04:04:48;95814.97;;;6.38;nan
70072;BME280;57434;42.794;23.302;2023-05-10T04:05:58;95802.28;;;6.37;nan
70072;BME280;57434;42.794;23.302;2023-05-10T04:07:01;95771.88;;;6.21;nan
70072;BME280;57434;42.794;23.302;2023-05-10T04:08:03;95917.94;;;7.09;nan
70072;BME280;57434;42.794;23.302;2023-05-10T04:09:05;95958.72;;;7.25;nan
70072;BME280;57434;42.794;23.302;2023-05-10T04:10:08;95929.91;;;7.28;nan
70072;BME280;57434;42.794;23.302;2023-05-10T04:11:11;95908.19;;;7.23;nan
70072;BME280;57434;42.794;23.302;2023-05-10T04:12:13;95787.25;;;6.34;nan
70072;BME280;57434;42.794;23.302;2023-05-10T04:13:15;95938.28;;;7.28;nan
70072;BME280;57434;42.794;23.302;2023-05-10T04:14:17;95937.22;;;7.34;nan
70072;BME280;57434;42.794;23.302;2023-05-10T04:15:19;95956.72;;;7.25;nan
70072;BME280;57434;42.794;23.302;2023-05-10T04:16:20;95931.34;;;7.32;nan
70072;BME280;57434;42.794;23.302;2023-05-10T04:17:22;95816.56;;;6.57;nan
70072;BME280;57434;42.794;23.302;2023-05-10T04:18:24;95938.72;;;7.26;nan
70072;BME280;57434;42.794;23.302;2023-05-10T04:19:32;95951.81;;;7.38;nan
70072;BME280;57434;42.794;23.302;2023-05-10T04:20:34;95933.97;;;7.36;nan
70072;BME280;57434;42.794;23.302;2023-05-10T04:21:36;95945.41;;;7.29;nan
70072;BME280;57434;42.794;23.302;2023-05-10T04:22:38;95919.38;;;7.32;nan
70072;BME280;57434;42.794;23.302;2023-05-10T04:23:40;95936.31;;;7.46;nan
70072;BME280;57434;42.794;23.302;2023-05-10T04:24:42;95918.16;;;7.33;nan
70072;BME280;57434;42.794;23.302;2023-05-10T04:25:44;95937.09;;;7.47;nan
70072;BME280;57434;42.794;23.302;2023-05-10T04:26:46;95798.88;;;6.51;nan
70072;BME280;57434;42.794;23.302;2023-05-10T04:27:48;95921.06;;;7.29;nan
70072;BME280;57434;42.794;23.302;2023-05-10T04:28:49;95823.84;;;6.73;nan
70072;BME280;57434;42.794;23.302;2023-05-10T04:29:51;95899.34;;;7.24;nan
70072;BME280;57434;42.794;23.302;2023-05-10T04:31:00;95823.69;;;6.76;nan
70072;BME280;57434;42.794;23.302;2023-05-10T04:32:02;95831.75;;;6.74;nan
70072;BME280;57434;42.794;23.302;2023-05-10T04:33:04;95815.94;;;6.71;nan
70072;BME280;57434;42.794;23.302;2023-05-10T04:34:06;95848.47;;;6.74;nan
70072;BME280;57434;42.794;23.302;2023-05-10T04:35:08;95945.13;;;7.36;nan
70072;BME280;57434;42.794;23.302;2023-05-10T04:36:10;95949.78;;;7.48;nan
70072;BME280;57434;42.794;23.302;2023-05-10T04:37:12;95825.41;;;6.74;nan
70072;BME280;57434;42.794;23.302;2023-05-10T04:38:14;95945.72;;;7.31;nan
70072;BME280;57434;42.794;23.302;2023-05-10T04:39:15;95822.91;;;6.58;nan
70072;BME280;57434;42.794;23.302;2023-05-10T04:40:17;95888.81;;;7.10;nan
70072;BME280;57434;42.794;23.302;2023-05-10T04:41:20;95933.78;;;7.30;nan
70072;BME280;57434;42.794;23.302;2023-05-10T04:42:21;95951.75;;;7.29;nan
70072;BME280;57434;42.794;23.302;2023-05-10T04:43:23;95971.38;;;7.47;nan
70072;BME280;57434;42.794;23.302;2023-05-10T04:44:25;95931.03;;;7.39;nan
70072;BME280;57434;42.794;23.302;2023-05-10T04:45:27;95949.34;;;7.40;nan
70072;BME280;57434;42.794;23.302;2023-05-10T04:46:29;95963.13;;;7.53;nan
70072;BME280;57434;42.794;23.302;2023-05-10T04:47:30;95913.94;;;7.28;nan
70072;BME280;57434;42.794;23.302;2023-05-10T04:48:33;95974.44;;;7.49;nan
70072;BME280;57434;42.794;23.302;2023-05-10T04:49:35;95804.34;;;6.64;nan
70072;BME280;57434;42.794;23.302;2023-05-10T04:50:37;95826.19;;;6.84;nan
70072;BME280;57434;42.794;23.302;2023-05-10T04:51:38;95936.78;;;7.45;nan
70072;BME280;57434;42.794;23.302;2023-05-10T04:52:40;95950.25;;;7.56;nan
70072;BME280;57434;42.794;23.302;2023-05-10T04:53:42;95823.38;;;6.74;nan
70072;BME280;57434;42.794;23.302;2023-05-10T04:54:51;95936.91;;;7.51;nan
70072;BME280;57434;42.794;23.302;2023-05-10T04:55:53;95823.41;;;6.84;nan
70072;BME280;57434;42.794;23.302;2023-05-10T04:56:55;95799.38;;;6.77;nan
70072;BME280;57434;42.794;23.302;2023-05-10T04:57:57;95805.44;;;6.85;nan
70072;BME280;57434;42.794;23.302;2023-05-10T04:58:58;95934.75;;;7.55;nan
70072;BME280;57434;42.794;23.302;2023-05-10T05:00:00;95910.69;;;7.57;nan
70072;BME280;57434;42.794;23.302;2023-05-10T05:01:07;95926.69;;;7.66;nan
70072;BME280;57434;42.794;23.302;2023-05-10T05:02:09;95949.81;;;7.66;nan
70072;BME280;57434;42.794;23.302;2023-05-10T05:03:10;95856.56;;;7.09;nan
70072;BME280;57434;42.794;23.302;2023-05-10T05:04:12;95961.13;;;7.72;nan
70072;BME280;57434;42.794;23.302;2023-05-10T05:05:14;95881.69;;;7.18;nan
70072;BME280;57434;42.794;23.302;2023-05-10T05:06:16;95945.44;;;7.65;nan
70072;BME280;57434;42.794;23.302;2023-05-10T05:07:18;95861.84;;;7.16;nan
70072;BME280;57434;42.794;23.302;2023-05-10T05:08:20;95827.59;;;6.88;nan
70072;BME280;57434;42.794;23.302;2023-05-10T05:09:21;95952.88;;;7.77;nan
70072;BME280;57434;42.794;23.302;2023-05-10T05:10:23;95958.34;;;7.72;nan
70072;BME280;57434;42.794;23.302;2023-05-10T05:11:25;95824.78;;;6.97;nan
70072;BME280;57434;42.794;23.302;2023-05-10T05:12:27;95922.63;;;7.48;nan
70072;BME280;57434;42.794;23.302;2023-05-10T05:13:29;95954.00;;;7.71;nan
70072;BME280;57434;42.794;23.302;2023-05-10T05:14:31;95810.97;;;6.66;nan
70072;BME280;57434;42.794;23.302;2023-05-10T05:15:32;95937.25;;;7.43;nan
70072;BME280;57434;42.794;23.302;2023-05-10T05:16:34;95847.56;;;6.96;nan
70072;BME280;57434;42.794;23.302;2023-05-10T05:17:36;95817.81;;;6.84;nan
70072;BME280;57434;42.794;23.302;2023-05-10T05:18:38;95946.53;;;7.68;nan
70072;BME280;57434;42.794;23.302;2023-05-10T05:19:40;95817.81;;;6.84;nan
70072;BME280;57434;42.794;23.302;2023-05-10T05:20:42;95976.47;;;7.86;nan
70072;BME280;57434;42.794;23.302;2023-05-10T05:21:44;95811.63;;;6.89;nan
70072;BME280;57434;42.794;23.302;2023-05-10T05:22:46;95915.50;;;7.57;nan
70072;BME280;57434;42.794;23.302;2023-05-10T05:23:47;95931.03;;;7.67;nan
70072;BME280;57434;42.794;23.302;2023-05-10T05:24:49;95843.09;;;7.07;nan
70072;BME280;57434;42.794;23.302;2023-05-10T05:25:52;95833.94;;;7.07;nan
70072;BME280;57434;42.794;23.302;2023-05-10T05:26:54;95908.06;;;7.54;nan
70072;BME280;57434;42.794;23.302;2023-05-10T05:27:55;95811.94;;;6.81;nan
70072;BME280;57434;42.794;23.302;2023-05-10T05:28:57;95836.72;;;6.98;nan
70072;BME280;57434;42.794;23.302;2023-05-10T05:29:59;95969.81;;;7.74;nan
70072;BME280;57434;42.794;23.302;2023-05-10T05:31:01;95953.06;;;7.65;nan
70072;BME280;57434;42.794;23.302;2023-05-10T05:32:03;95951.34;;;7.58;nan
70072;BME280;57434;42.794;23.302;2023-05-10T05:33:05;95843.25;;;7.04;nan
70072;BME280;57434;42.794;23.302;2023-05-10T05:34:07;95956.94;;;7.67;nan
70072;BME280;57434;42.794;23.302;2023-05-10T05:35:09;95942.50;;;7.60;nan
70072;BME280;57434;42.794;23.302;2023-05-10T05:36:11;95950.28;;;7.74;nan
70072;BME280;57434;42.794;23.302;2023-05-10T05:37:19;95840.16;;;6.93;nan
70072;BME280;57434;42.794;23.302;2023-05-10T05:38:21;95963.28;;;7.77;nan
70072;BME280;57434;42.794;23.302;2023-05-10T05:39:22;95830.22;;;7.01;nan
70072;BME280;57434;42.794;23.302;2023-05-10T05:40:24;95960.94;;;7.75;nan
70072;BME280;57434;42.794;23.302;2023-05-10T05:41:26;95980.50;;;7.75;nan
70072;BME280;57434;42.794;23.302;2023-05-10T05:42:28;95931.81;;;7.67;nan
70072;BME280;57434;42.794;23.302;2023-05-10T05:43:30;95905.44;;;7.50;nan
70072;BME280;57434;42.794;23.302;2023-05-10T05:44:32;95829.31;;;7.13;nan
70072;BME280;57434;42.794;23.302;2023-05-10T05:45:34;95942.00;;;7.79;nan
70072;BME280;57434;42.794;23.302;2023-05-10T05:46:35;95960.47;;;7.77;nan
70072;BME280;57434;42.794;23.302;2023-05-10T05:47:37;95849.13;;;7.15;nan
70072;BME280;57434;42.794;23.302;2023-05-10T05:48:39;95961.28;;;7.68;nan
70072;BME280;57434;42.794;23.302;2023-05-10T05:49:41;95820.00;;;6.89;nan
70072;BME280;57434;42.794;23.302;2023-05-10T05:50:43;95849.44;;;7.17;nan
70072;BME280;57434;42.794;23.302;2023-05-10T05:51:44;95820.47;;;7.05;nan
70072;BME280;57434;42.794;23.302;2023-05-10T05:52:46;95841.09;;;7.17;nan
70072;BME280;57434;42.794;23.302;2023-05-10T05:53:48;95948.22;;;7.83;nan
70072;BME280;57434;42.794;23.302;2023-05-10T05:54:50;95909.16;;;7.47;nan
70072;BME280;57434;42.794;23.302;2023-05-10T05:55:53;95972.44;;;7.96;nan
70072;BME280;57434;42.794;23.302;2023-05-10T05:56:59;95891.91;;;7.21;nan
70072;BME280;57434;42.794;23.302;2023-05-10T05:58:02;95887.75;;;7.35;nan
70072;BME280;57434;42.794;23.302;2023-05-10T05:59:04;95934.91;;;7.60;nan
70072;BME280;57434;42.794;23.302;2023-05-10T06:00:06;95917.53;;;7.47;nan
70072;BME280;57434;42.794;23.302;2023-05-10T06:01:08;95992.75;;;7.78;nan
70072;BME280;57434;42.794;23.302;2023-05-10T06:02:10;95984.53;;;7.65;nan
70072;BME280;57434;42.794;23.302;2023-05-10T06:03:12;95833.63;;;6.96;nan
70072;BME280;57434;42.794;23.302;2023-05-10T06:04:14;95885.41;;;7.24;nan